createdAt,value
2023-01-28T00:00:47.721Z,1.69
2023-01-28T00:03:15.908Z,1.69
2023-01-28T00:05:42.961Z,1.65
2023-01-28T00:08:10.137Z,1.67
2023-01-28T00:10:39.521Z,1.74
2023-01-28T00:13:07.115Z,1.74
2023-01-28T00:15:33.544Z,1.74
2023-01-28T00:18:00.358Z,1.69
2023-01-28T00:20:26.716Z,1.79
2023-01-28T00:22:53.050Z,1.72
2023-01-28T00:25:19.613Z,1.69
2023-01-28T00:27:46.081Z,1.69
2023-01-28T00:30:12.875Z,1.70
2023-01-28T00:32:39.229Z,1.69
2023-01-28T00:35:05.976Z,1.68
2023-01-28T00:37:32.653Z,1.68
2023-01-28T00:39:58.981Z,1.63
2023-01-28T00:42:25.464Z,1.59
2023-01-28T00:44:55.042Z,1.62
2023-01-28T00:47:21.946Z,1.60
2023-01-28T00:49:48.276Z,1.57
2023-01-28T00:52:14.739Z,1.58
2023-01-28T00:54:41.111Z,1.52
2023-01-28T00:57:07.954Z,1.58
2023-01-28T00:59:34.288Z,1.52
2023-01-28T01:02:12.276Z,1.51
2023-01-28T01:04:39.934Z,1.59
2023-01-28T01:07:06.975Z,1.66
2023-01-28T01:09:33.310Z,1.56
2023-01-28T01:11:59.834Z,1.55
2023-01-28T01:14:26.157Z,1.45
2023-01-28T01:16:52.484Z,1.43
2023-01-28T01:19:18.810Z,1.46
2023-01-28T01:21:50.247Z,1.42
2023-01-28T01:24:16.838Z,1.44
2023-01-28T01:26:43.270Z,1.37
2023-01-28T01:29:09.792Z,1.31
2023-01-28T01:31:36.248Z,1.31
2023-01-28T01:34:02.636Z,1.29
2023-01-28T01:36:29.066Z,1.34
2023-01-28T01:38:56.416Z,1.28
2023-01-28T01:41:31.971Z,1.32
2023-01-28T01:44:03.699Z,1.28
2023-01-28T01:46:38.189Z,1.26
2023-01-28T01:49:24.831Z,1.31
2023-01-28T01:51:57.763Z,1.29
2023-01-28T01:54:28.390Z,1.24
2023-01-28T01:56:58.481Z,1.28
2023-01-28T01:59:32.126Z,1.23
2023-01-28T02:02:03.349Z,1.22
2023-01-28T02:04:35.432Z,1.27
2023-01-28T02:07:02.622Z,1.22
2023-01-28T02:09:36.077Z,1.21
2023-01-28T02:12:08.426Z,1.19
2023-01-28T02:14:41.079Z,1.14
2023-01-28T02:17:08.896Z,1.11
2023-01-28T02:19:40.721Z,1.07
2023-01-28T02:22:49.193Z,1.10
2023-01-28T02:25:34.628Z,1.14
2023-01-28T02:28:27.715Z,1.11
2023-01-28T02:31:01.015Z,1.10
2023-01-28T02:33:35.858Z,1.16
2023-01-28T02:36:12.462Z,1.14
2023-01-28T02:38:46.586Z,1.09
2023-01-28T02:41:20.806Z,1.05
2023-01-28T02:43:48.205Z,1.13
2023-01-28T02:46:45.474Z,1.11
2023-01-28T02:49:16.351Z,1.06
2023-01-28T02:52:00.918Z,1.12
2023-01-28T02:54:52.050Z,1.10
2023-01-28T02:57:42.944Z,1.15
2023-01-28T03:00:25.853Z,1.06
2023-01-28T03:03:02.147Z,1.11
2023-01-28T03:05:37.717Z,1.00
2023-01-28T03:08:26.707Z,1.03
2023-01-28T03:11:15.020Z,1.13
2023-01-28T03:14:02.670Z,1.14
2023-01-28T03:16:51.119Z,1.06
2023-01-28T03:19:36.915Z,1.05
2023-01-28T03:22:22.885Z,1.03
2023-01-28T03:25:11.703Z,1.01
2023-01-28T03:28:09.725Z,1.06
2023-01-28T03:31:13.777Z,1.05
2023-01-28T03:34:06.187Z,1.09
2023-01-28T03:36:51.280Z,1.11
2023-01-28T03:39:37.163Z,1.09
2023-01-28T03:42:11.211Z,1.14
2023-01-28T03:44:51.880Z,1.15
2023-01-28T03:47:27.241Z,1.10
2023-01-28T03:49:55.808Z,1.15
2023-01-28T03:52:31.815Z,1.11
2023-01-28T03:55:15.976Z,1.04
2023-01-28T03:57:44.643Z,1.11
2023-01-28T04:00:12.500Z,1.06
2023-01-28T04:02:41.851Z,1.08
2023-01-28T04:05:12.835Z,1.03
2023-01-28T04:07:44.785Z,1.04
2023-01-28T04:10:39.130Z,1.06
2023-01-28T04:13:13.518Z,1.06
2023-01-28T04:15:40.264Z,1.05
2023-01-28T04:18:09.848Z,1.04
2023-01-28T04:20:37.846Z,1.06
2023-01-28T04:23:04.902Z,1.04
2023-01-28T04:25:32.070Z,1.04
2023-01-28T04:27:59.040Z,0.98
2023-01-28T04:30:28.519Z,0.96
2023-01-28T04:33:06.581Z,0.98
2023-01-28T04:35:51.062Z,0.99
2023-01-28T04:38:24.216Z,1.00
2023-01-28T04:41:00.125Z,0.98
2023-01-28T04:43:30.344Z,0.95
2023-01-28T04:46:19.403Z,0.90
2023-01-28T04:48:55.381Z,0.90
2023-01-28T04:51:39.267Z,0.94
2023-01-28T04:54:11.537Z,1.02
2023-01-28T04:56:37.929Z,0.99
2023-01-28T04:59:04.510Z,0.92
2023-01-28T05:01:32.219Z,0.94
2023-01-28T05:03:59.551Z,0.92
2023-01-28T05:06:27.687Z,0.89
2023-01-28T05:08:56.434Z,0.77
2023-01-28T05:11:22.814Z,0.83
2023-01-28T05:13:54.909Z,0.81
2023-01-28T05:16:21.333Z,0.77
2023-01-28T05:18:48.031Z,0.75
2023-01-28T05:21:16.305Z,0.75
2023-01-28T05:23:44.036Z,0.71
2023-01-28T05:26:10.628Z,0.77
2023-01-28T05:28:38.030Z,0.71
2023-01-28T05:31:07.553Z,0.69
2023-01-28T05:33:34.392Z,0.68
2023-01-28T05:36:02.156Z,0.70
2023-01-28T05:38:28.581Z,0.74
2023-01-28T05:40:55.025Z,0.69
2023-01-28T05:43:22.088Z,0.71
2023-01-28T05:46:08.620Z,0.66
2023-01-28T05:48:54.925Z,0.64
2023-01-28T05:51:36.127Z,0.66
2023-01-28T05:54:03.288Z,0.60
2023-01-28T05:56:30.352Z,0.60
2023-01-28T05:58:56.713Z,0.64
2023-01-28T06:01:23.234Z,0.55
2023-01-28T06:03:53.535Z,0.54
2023-01-28T06:06:20.028Z,0.58
2023-01-28T06:08:46.801Z,0.51
2023-01-28T06:11:19.962Z,0.51
2023-01-28T06:13:47.079Z,0.53
2023-01-28T06:16:42.593Z,0.56
2023-01-28T06:19:28.153Z,0.54
2023-01-28T06:21:55.139Z,0.59
2023-01-28T06:24:21.581Z,0.39
2023-01-28T06:26:48.157Z,0.38
2023-01-28T06:29:15.031Z,0.42
2023-01-28T06:31:41.482Z,0.39
2023-01-28T06:34:09.831Z,0.47
2023-01-28T06:36:37.981Z,0.43
2023-01-28T06:39:04.673Z,0.37
2023-01-28T06:41:30.978Z,0.34
2023-01-28T06:43:57.550Z,0.37
2023-01-28T06:46:24.774Z,0.44
2023-01-28T06:48:51.433Z,0.39
2023-01-28T06:51:17.747Z,0.38
2023-01-28T06:53:45.971Z,0.28
2023-01-28T06:56:12.494Z,0.28
2023-01-28T06:58:38.815Z,0.26
2023-01-28T07:01:10.115Z,0.25
2023-01-28T07:03:37.063Z,0.24
2023-01-28T07:06:03.605Z,0.22
2023-01-28T07:08:29.954Z,0.26
2023-01-28T07:10:56.277Z,0.26
2023-01-28T07:13:22.608Z,0.24
2023-01-28T07:15:49.632Z,0.27
2023-01-28T07:18:16.160Z,0.27
2023-01-28T07:20:42.484Z,0.25
2023-01-28T07:23:08.807Z,0.22
2023-01-28T07:25:35.222Z,0.21
2023-01-28T07:28:01.590Z,0.21
2023-01-28T07:30:28.024Z,0.22
2023-01-28T07:32:59.006Z,0.23
2023-01-28T07:35:26.251Z,0.26
2023-01-28T07:37:56.874Z,0.23
2023-01-28T07:40:24.494Z,0.19
2023-01-28T07:42:52.073Z,0.21
2023-01-28T07:45:22.340Z,0.25
2023-01-28T07:48:00.249Z,0.24
2023-01-28T07:50:29.111Z,0.30
2023-01-28T07:52:56.786Z,0.31
2023-01-28T07:55:23.735Z,0.33
2023-01-28T07:57:55.490Z,0.32
2023-01-28T08:00:23.365Z,0.35
2023-01-28T08:02:50.433Z,0.28
2023-01-28T08:05:21.370Z,0.37
2023-01-28T08:07:48.779Z,0.34
2023-01-28T08:10:19.093Z,0.35
2023-01-28T08:12:59.043Z,0.37
2023-01-28T08:15:26.124Z,0.39
2023-01-28T08:17:59.367Z,0.42
2023-01-28T08:20:27.312Z,0.42
2023-01-28T08:22:54.351Z,0.43
2023-01-28T08:25:21.080Z,0.43
2023-01-28T08:27:47.436Z,0.50
2023-01-28T08:30:14.240Z,0.51
2023-01-28T08:32:40.774Z,0.50
2023-01-28T08:35:07.775Z,0.52
2023-01-28T08:37:34.179Z,0.54
2023-01-28T08:40:00.703Z,0.59
2023-01-28T08:42:27.066Z,0.59
2023-01-28T08:44:53.406Z,0.62
2023-01-28T08:47:20.243Z,0.60
2023-01-28T08:49:46.578Z,0.56
2023-01-28T08:52:12.914Z,0.55
2023-01-28T08:54:39.232Z,0.56
2023-01-28T08:57:05.616Z,0.50
2023-01-28T08:59:31.920Z,0.56
2023-01-28T09:01:58.577Z,0.55
2023-01-28T09:04:24.925Z,0.66
2023-01-28T09:06:51.279Z,0.66
2023-01-28T09:09:17.705Z,0.62
2023-01-28T09:11:44.127Z,0.64
2023-01-28T09:14:10.433Z,0.73
2023-01-28T09:16:36.766Z,0.70
2023-01-28T09:19:03.112Z,0.70
2023-01-28T09:21:29.494Z,0.76
2023-01-28T09:23:56.749Z,0.76
2023-01-28T09:26:23.084Z,0.74
2023-01-28T09:28:49.406Z,0.72
2023-01-28T09:31:15.844Z,0.84
2023-01-28T09:33:42.263Z,0.78
2023-01-28T09:36:11.341Z,0.83
2023-01-28T09:38:37.769Z,0.78
2023-01-28T09:41:21.418Z,0.81
2023-01-28T09:44:10.967Z,0.82
2023-01-28T09:46:38.375Z,0.84
2023-01-28T09:49:20.048Z,0.79
2023-01-28T09:51:53.747Z,0.83
2023-01-28T09:54:44.178Z,0.83
2023-01-28T09:57:20.671Z,0.82
2023-01-28T09:59:47.244Z,0.89
2023-01-28T10:02:44.392Z,0.88
2023-01-28T10:05:20.216Z,0.89
2023-01-28T10:08:05.734Z,0.88
2023-01-28T10:10:41.986Z,0.91
2023-01-28T10:13:37.845Z,0.85
2023-01-28T10:16:09.137Z,0.78
2023-01-28T10:18:43.598Z,0.68
2023-01-28T10:21:16.716Z,0.64
2023-01-28T10:24:04.790Z,0.73
2023-01-28T10:26:36.390Z,0.76
2023-01-28T10:29:19.503Z,0.82
2023-01-28T10:31:55.076Z,0.90
2023-01-28T10:34:22.623Z,0.99
2023-01-28T10:36:50.299Z,1.13
2023-01-28T10:39:19.795Z,1.13
2023-01-28T10:41:57.453Z,1.03
2023-01-28T10:44:42.226Z,1.04
2023-01-28T10:47:14.479Z,1.13
2023-01-28T10:49:56.223Z,1.06
2023-01-28T10:52:22.564Z,1.16
2023-01-28T10:54:59.433Z,1.21
2023-01-28T10:57:25.840Z,1.35
2023-01-28T10:59:52.242Z,1.15
2023-01-28T11:02:26.491Z,1.14
2023-01-28T11:05:02.921Z,1.17
2023-01-28T11:07:29.312Z,1.17
2023-01-28T11:09:55.650Z,1.17
2023-01-28T11:12:27.640Z,1.12
2023-01-28T11:15:02.514Z,1.14
2023-01-28T11:17:32.683Z,1.16
2023-01-28T11:20:01.698Z,1.21
2023-01-28T11:22:34.105Z,1.23
2023-01-28T11:25:04.697Z,1.13
2023-01-28T11:27:32.554Z,1.19
2023-01-28T11:30:04.496Z,1.23
2023-01-28T11:32:31.255Z,1.20
2023-01-28T11:34:58.218Z,1.00
2023-01-28T11:37:27.305Z,1.02
2023-01-28T11:40:23.563Z,1.03
2023-01-28T11:42:52.261Z,1.02
2023-01-28T11:45:23.393Z,1.09
2023-01-28T11:48:06.541Z,1.11
2023-01-28T11:51:09.302Z,1.20
2023-01-28T11:53:58.557Z,1.15
2023-01-28T11:57:01.744Z,1.17
2023-01-28T11:59:49.602Z,1.22
2023-01-28T12:03:10.197Z,1.16
2023-01-28T12:05:50.116Z,1.12
2023-01-28T12:08:28.340Z,1.13
2023-01-28T12:11:20.795Z,1.09
2023-01-28T12:14:12.571Z,1.20
2023-01-28T12:17:06.561Z,0.95
2023-01-28T12:19:46.601Z,0.90
2023-01-28T12:22:22.739Z,0.95
2023-01-28T12:24:54.867Z,1.13
2023-01-28T12:27:50.919Z,1.11
2023-01-28T12:30:42.820Z,1.08
2023-01-28T12:33:33.306Z,1.09
2023-01-28T12:36:43.109Z,1.33
2023-01-28T12:39:47.993Z,1.27
2023-01-28T12:42:23.207Z,1.34
2023-01-28T12:44:59.742Z,1.25
2023-01-28T12:47:36.272Z,1.35
2023-01-28T12:50:14.550Z,1.34
2023-01-28T12:52:47.120Z,1.55
2023-01-28T12:55:28.902Z,1.63
2023-01-28T12:57:58.586Z,1.68
2023-01-28T13:00:33.523Z,1.58
2023-01-28T13:03:18.918Z,1.72
2023-01-28T13:05:56.935Z,1.74
2023-01-28T13:08:25.586Z,1.81
2023-01-28T13:10:53.664Z,1.80
2023-01-28T13:13:29.719Z,1.88
2023-01-28T13:15:56.553Z,1.86
2023-01-28T13:18:45.215Z,2.07
2023-01-28T13:21:34.636Z,2.20
2023-01-28T13:24:09.289Z,2.33
2023-01-28T13:26:42.256Z,2.31
2023-01-28T13:29:14.827Z,2.12
2023-01-28T13:31:53.466Z,1.79
2023-01-28T13:34:59.768Z,1.78
2023-01-28T13:37:44.141Z,1.79
2023-01-28T13:40:13.459Z,1.80
2023-01-28T13:42:41.024Z,1.76
2023-01-28T13:45:23.094Z,1.84
2023-01-28T13:48:02.280Z,1.90
2023-01-28T13:50:39.302Z,1.82
2023-01-28T13:53:28.228Z,1.80
2023-01-28T13:55:58.736Z,1.77
2023-01-28T13:58:49.283Z,1.77
2023-01-28T14:01:34.506Z,1.77
2023-01-28T14:04:31.244Z,1.71
2023-01-28T14:07:22.168Z,1.70
2023-01-28T14:10:03.384Z,1.71
2023-01-28T14:12:56.178Z,1.68
2023-01-28T14:15:33.636Z,1.64
2023-01-28T14:18:00.152Z,1.64
2023-01-28T14:20:37.512Z,1.55
2023-01-28T14:23:06.151Z,1.58
2023-01-28T14:25:47.489Z,1.51
2023-01-28T14:28:21.337Z,1.49
2023-01-28T14:30:53.504Z,1.42
2023-01-28T14:33:22.332Z,1.28
2023-01-28T14:35:49.763Z,1.31
2023-01-28T14:38:21.784Z,1.28
2023-01-28T14:40:53.389Z,1.28
2023-01-28T14:43:23.687Z,1.27
2023-01-28T14:46:19.507Z,1.29
2023-01-28T14:49:17.205Z,1.32
2023-01-28T14:52:08.809Z,1.26
2023-01-28T14:54:38.176Z,1.33
2023-01-28T14:57:19.531Z,1.34
2023-01-28T14:59:54.162Z,1.35
2023-01-28T15:02:28.993Z,1.46
2023-01-28T15:05:07.824Z,1.33
2023-01-28T15:07:34.134Z,1.29
2023-01-28T15:10:06.840Z,1.26
2023-01-28T15:12:37.527Z,1.22
2023-01-28T15:15:40.349Z,1.10
2023-01-28T15:18:26.614Z,1.09
2023-01-28T15:20:55.084Z,1.09
2023-01-28T15:23:40.319Z,1.15
2023-01-28T15:26:12.227Z,1.11
2023-01-28T15:28:39.850Z,1.10
2023-01-28T15:31:07.051Z,1.06
2023-01-28T15:33:33.563Z,1.04
2023-01-28T15:36:00.199Z,1.06
2023-01-28T15:38:28.741Z,1.04
2023-01-28T15:41:00.713Z,0.96
2023-01-28T15:43:33.166Z,0.99
2023-01-28T15:46:00.508Z,0.91
2023-01-28T15:48:30.834Z,0.83
2023-01-28T15:50:59.953Z,0.76
2023-01-28T15:53:28.210Z,0.72
2023-01-28T15:56:14.549Z,0.66
2023-01-28T15:58:41.792Z,0.61
2023-01-28T16:01:08.210Z,0.51
2023-01-28T16:03:36.961Z,0.49
2023-01-28T16:06:09.577Z,0.41
2023-01-28T16:08:40.689Z,0.34
2023-01-28T16:11:09.509Z,0.31
2023-01-28T16:13:42.684Z,0.28
2023-01-28T16:16:10.260Z,0.23
2023-01-28T16:18:43.268Z,0.18
2023-01-28T16:21:12.625Z,0.16
2023-01-28T16:23:39.904Z,0.08
2023-01-28T16:26:21.135Z,0.05
2023-01-28T16:28:47.553Z,-0.01
2023-01-28T16:31:14.200Z,0.00
2023-01-28T16:33:40.619Z,-0.06
2023-01-28T16:36:10.897Z,-0.09
2023-01-28T16:38:37.248Z,-0.15
2023-01-28T16:41:03.789Z,-0.17
2023-01-28T16:43:30.476Z,-0.22
2023-01-28T16:45:56.848Z,-0.23
2023-01-28T16:48:23.301Z,-0.28
2023-01-28T16:50:49.762Z,-0.30
2023-01-28T16:53:20.968Z,-0.35
2023-01-28T16:55:50.742Z,-0.30
2023-01-28T16:58:21.434Z,-0.39
2023-01-28T17:00:47.808Z,-0.41
2023-01-28T17:03:14.248Z,-0.45
2023-01-28T17:05:40.646Z,-0.50
2023-01-28T17:08:07.281Z,-0.56
2023-01-28T17:10:33.961Z,-0.65
2023-01-28T17:13:00.350Z,-0.72
2023-01-28T17:15:26.694Z,-0.80
2023-01-28T17:17:53.582Z,-0.86
2023-01-28T17:20:19.972Z,-0.88
2023-01-28T17:22:46.359Z,-0.91
2023-01-28T17:25:14.511Z,-0.95
2023-01-28T17:27:41.154Z,-1.01
2023-01-28T17:30:08.109Z,-1.03
2023-01-28T17:32:34.482Z,-1.08
2023-01-28T17:35:01.123Z,-1.10
2023-01-28T17:37:27.438Z,-1.10
2023-01-28T17:39:53.746Z,-1.10
2023-01-28T17:42:20.069Z,-1.13
2023-01-28T17:44:46.430Z,-1.17
2023-01-28T17:47:12.772Z,-1.16
2023-01-28T17:49:39.096Z,-1.14
2023-01-28T17:52:05.677Z,-1.17
2023-01-28T17:54:32.105Z,-1.17
2023-01-28T17:56:58.547Z,-1.19
2023-01-28T17:59:25.868Z,-1.22
2023-01-28T18:01:54.449Z,-1.25
2023-01-28T18:04:20.823Z,-1.31
2023-01-28T18:06:49.004Z,-1.37
2023-01-28T18:09:15.384Z,-1.39
2023-01-28T18:11:41.719Z,-1.43
2023-01-28T18:14:08.147Z,-1.46
2023-01-28T18:16:34.489Z,-1.56
2023-01-28T18:19:00.842Z,-1.59
2023-01-28T18:21:51.722Z,-1.69
2023-01-28T18:24:19.959Z,-1.74
2023-01-28T18:26:46.417Z,-1.75
2023-01-28T18:29:16.617Z,-1.80
2023-01-28T18:31:43.186Z,-1.86
2023-01-28T18:34:09.621Z,-1.90
2023-01-28T18:36:35.944Z,-1.97
2023-01-28T18:39:02.290Z,-1.97
2023-01-28T18:41:28.625Z,-1.99
2023-01-28T18:43:54.945Z,-1.98
2023-01-28T18:46:21.328Z,-1.98
2023-01-28T18:48:47.722Z,-2.06
2023-01-28T18:51:28.818Z,-2.10
2023-01-28T18:53:59.758Z,-2.15
2023-01-28T18:56:27.716Z,-2.16
2023-01-28T18:59:03.321Z,-2.16
2023-01-28T19:01:31.321Z,-2.22
2023-01-28T19:03:58.353Z,-2.26
2023-01-28T19:06:27.065Z,-2.26
2023-01-28T19:08:59.871Z,-2.24
2023-01-28T19:11:29.146Z,-2.31
2023-01-28T19:13:56.885Z,-2.32
2023-01-28T19:16:23.764Z,-2.37
2023-01-28T19:18:55.113Z,-2.34
2023-01-28T19:21:22.904Z,-2.34
2023-01-28T19:24:01.663Z,-2.38
2023-01-28T19:26:30.350Z,-2.40
2023-01-28T19:28:57.099Z,-2.39
2023-01-28T19:31:25.116Z,-2.43
2023-01-28T19:33:57.092Z,-2.41
2023-01-28T19:36:26.180Z,-2.47
2023-01-28T19:38:56.362Z,-2.46
2023-01-28T19:41:22.941Z,-2.49
2023-01-28T19:43:49.344Z,-2.52
2023-01-28T19:46:17.610Z,-2.54
2023-01-28T19:48:45.365Z,-2.58
2023-01-28T19:51:12.965Z,-2.60
2023-01-28T19:53:40.605Z,-2.63
2023-01-28T19:56:10.691Z,-2.57
2023-01-28T19:58:39.949Z,-2.67
2023-01-28T20:01:08.491Z,-2.67
2023-01-28T20:03:35.657Z,-2.64
2023-01-28T20:06:03.841Z,-2.67
2023-01-28T20:08:30.536Z,-2.71
2023-01-28T20:11:08.750Z,-2.78
2023-01-28T20:13:36.437Z,-2.75
2023-01-28T20:16:07.544Z,-2.76
2023-01-28T20:18:35.297Z,-2.78
2023-01-28T20:21:01.926Z,-2.81
2023-01-28T20:23:28.457Z,-2.81
2023-01-28T20:25:58.605Z,-2.92
2023-01-28T20:28:25.373Z,-2.90
2023-01-28T20:30:53.527Z,-2.94
2023-01-28T20:33:20.716Z,-2.91
2023-01-28T20:35:47.065Z,-2.94
2023-01-28T20:38:14.529Z,-2.95
2023-01-28T20:40:42.270Z,-2.97
2023-01-28T20:43:09.462Z,-3.01
2023-01-28T20:45:35.838Z,-2.97
2023-01-28T20:48:02.386Z,-3.02
2023-01-28T20:50:28.733Z,-2.99
2023-01-28T20:52:55.141Z,-2.99
2023-01-28T20:55:21.571Z,-3.00
2023-01-28T20:57:48.366Z,-3.00
2023-01-28T21:00:15.555Z,-2.95
2023-01-28T21:02:44.176Z,-3.01
2023-01-28T21:05:10.690Z,-2.99
2023-01-28T21:07:37.359Z,-2.96
2023-01-28T21:10:04.834Z,-3.02
2023-01-28T21:12:31.387Z,-3.07
2023-01-28T21:14:57.872Z,-3.05
2023-01-28T21:17:25.352Z,-3.05
2023-01-28T21:19:52.094Z,-3.09
2023-01-28T21:22:19.978Z,-3.00
2023-01-28T21:24:48.736Z,-3.08
2023-01-28T21:27:15.082Z,-3.09
2023-01-28T21:29:41.955Z,-3.01
2023-01-28T21:32:08.494Z,-3.03
2023-01-28T21:34:34.903Z,-3.00
2023-01-28T21:37:01.217Z,-3.08
2023-01-28T21:39:27.554Z,-3.08
2023-01-28T21:41:54.107Z,-3.10
2023-01-28T21:44:20.466Z,-3.13
2023-01-28T21:46:46.943Z,-3.09
2023-01-28T21:49:13.312Z,-3.07
2023-01-28T21:51:39.906Z,-3.06
2023-01-28T21:54:11.347Z,-3.04
2023-01-28T21:56:37.790Z,-3.00
2023-01-28T21:59:23.311Z,-2.93
2023-01-28T22:01:49.755Z,-2.88
2023-01-28T22:04:16.197Z,-2.83
2023-01-28T22:06:42.936Z,-2.82
2023-01-28T22:09:13.521Z,-2.88
2023-01-28T22:11:41.311Z,-2.92
2023-01-28T22:14:08.199Z,-2.98
2023-01-28T22:16:34.568Z,-3.07
2023-01-28T22:19:01.008Z,-3.12
2023-01-28T22:21:27.987Z,-3.14
2023-01-28T22:23:54.451Z,-3.16
2023-01-28T22:26:20.863Z,-3.18
2023-01-28T22:28:47.227Z,-3.18
2023-01-28T22:31:16.256Z,-3.25
2023-01-28T22:33:43.774Z,-3.25
2023-01-28T22:36:15.593Z,-3.25
2023-01-28T22:38:43.600Z,-3.25
2023-01-28T22:41:13.349Z,-3.26
2023-01-28T22:43:40.826Z,-3.11
2023-01-28T22:46:07.650Z,-3.09
2023-01-28T22:48:37.083Z,-3.05
2023-01-28T22:51:09.276Z,-3.06
2023-01-28T22:53:35.652Z,-3.03
2023-01-28T22:56:02.652Z,-3.01
2023-01-28T22:58:31.509Z,-3.01
2023-01-28T23:00:58.503Z,-2.97
2023-01-28T23:03:25.522Z,-2.97
2023-01-28T23:05:52.228Z,-2.90
2023-01-28T23:08:18.763Z,-2.83
2023-01-28T23:10:49.977Z,-2.78
2023-01-28T23:13:18.391Z,-2.84
2023-01-28T23:16:04.360Z,-2.88
2023-01-28T23:18:49.041Z,-2.93
2023-01-28T23:21:36.816Z,-2.96
2023-01-28T23:24:19.451Z,-2.95
2023-01-28T23:26:54.247Z,-2.90
2023-01-28T23:29:24.997Z,-2.85
2023-01-28T23:32:01.198Z,-2.89
2023-01-28T23:34:31.658Z,-2.92
2023-01-28T23:36:58.480Z,-2.96
2023-01-28T23:39:24.812Z,-2.98
2023-01-28T23:41:51.146Z,-3.03
2023-01-28T23:44:18.481Z,-3.11
2023-01-28T23:46:44.933Z,-3.21
2023-01-28T23:49:11.277Z,-3.27
2023-01-28T23:51:37.596Z,-3.28
2023-01-28T23:54:04.050Z,-3.26
2023-01-28T23:56:30.381Z,-3.30
2023-01-28T23:58:56.850Z,-3.29
